Intintoli — WCX2709 — position and weather

sailwx.info

Track history (hours):
 
Tides and Currents Weather Stations Pressure Air Temp Water Temp Dewpoint Dewpoint Depression Visibility Wind Speed Wind Dir Waves Ship Positions

Intintoli

Owner: San Francisco Bay Area Water Emergency Transportation Authority, VALLEJO, CA. More information available from US FCC via Universal Licensing System and Coast Guard Vessel Documentation Center.

Last reported at 2017-Dec-18 03:43 UTC. Time now 2017-Dec-18 07:12 UTC.
Position N 38°04' W 122°15'.

Length 41 m.

Type: Passenger vessel. MMSI: 366989360.

Date/timePositionNaut miles runAvg speedWind from/ knotsBaromVisibWave heightAir tempDewpointWater temp
2017-Dec-18 03:43N 38°04' W 122°15'627.5
2017-Dec-18 03:31N 38°02' W 122°21'1428.5
2017-Dec-18 03:00N 37°48' W 122°24'1 2.4
2017-Dec-18 02:30N 37°49' W 122°25'0 0.7
2017-Dec-18 02:01N 37°49' W 122°25'1631.0
2017-Dec-18 01:31N 38°03' W 122°18'3 5.6
2017-Dec-18 00:58N 38°06' W 122°16'612.4
2017-Dec-18 00:30N 38°02' W 122°21'1427.7
2017-Dec-18 00:01N 37°49' W 122°25'1 2.4
2017-Dec-17 23:30N 37°48' W 122°24'1020.9
2017-Dec-17 23:00N 37°58' W 122°26'11 4.3
2017-Dec-17 20:20N 38°06' W 122°16'513.7
2017-Dec-17 20:00N 38°02' W 122°19'1529.0
2017-Dec-17 19:30N 37°49' W 122°25'1 2.4
2017-Dec-17 19:00N 37°48' W 122°24'1224.6
2017-Dec-17 18:30N 38°00' W 122°24'9 9.5
2017-Dec-17 17:35N 38°06' W 122°16'1 0.1
2017-Dec-17 03:46N 38°05' W 122°15'624.1
2017-Dec-17 03:30N 38°02' W 122°22'1427.9
2017-Dec-17 03:01N 37°48' W 122°24'1 2.4
2017-Dec-17 02:30N 37°49' W 122°25'1 1.1
2017-Dec-17 02:00N 37°49' W 122°25'1530.5
2017-Dec-17 01:30N 38°03' W 122°17'3 5.2
2017-Dec-17 00:56N 38°06' W 122°16'614.4
2017-Dec-17 00:31N 38°02' W 122°21'1326.6
2017-Dec-17 00:00N 37°49' W 122°25'1 2.4
2017-Dec-16 23:30N 37°48' W 122°24'1019.9
2017-Dec-16 23:00N 37°57' W 122°27'12 4.4
2017-Dec-16 20:19N 38°05' W 122°15'824.4
2017-Dec-16 19:58N 38°00' W 122°24'1225.5
2017-Dec-16 19:30N 37°49' W 122°25'1 2.4
2017-Dec-16 19:01N 37°48' W 122°24'1224.5
2017-Dec-16 18:31N 38°00' W 122°24'9 9.8
2017-Dec-16 17:35N 38°06' W 122°16'0 0.0
2017-Dec-16 05:20N 38°06' W 122°16'1 3.9
2017-Dec-16 05:00N 38°05' W 122°15'1327.5
2017-Dec-16 04:31N 37°54' W 122°25'713.1
2017-Dec-16 04:00N 37°48' W 122°24'4 7.1
2017-Dec-16 03:31N 37°51' W 122°25'1529.3
2017-Dec-16 03:01N 38°04' W 122°15'2 4.1
2017-Dec-16 02:30N 38°06' W 122°16'2 3.7
2017-Dec-16 02:00N 38°04' W 122°15'1326.7
2017-Dec-16 01:31N 37°54' W 122°25'612.4
2017-Dec-16 01:00N 37°48' W 122°24'1122.9
2017-Dec-16 00:30N 37°59' W 122°25'10 2.0
2017-Dec-15 19:38N 38°06' W 122°16'1 8.5
2017-Dec-15 19:30N 38°05' W 122°15'713.9
2017-Dec-15 19:01N 38°01' W 122°22'  
2017-Dec-12 10:25N 38°06' W 122°16'0 0.0
2017-Dec-12 09:25N 38°06' W 122°16'0 0.0
2017-Dec-12 08:55N 38°06' W 122°16'0 0.0
2017-Dec-12 00:54N 38°06' W 122°16'2 4.9
2017-Dec-12 00:30N 38°04' W 122°15'2 2.7
2017-Dec-11 23:48N 38°06' W 122°16'0 0.3
2017-Dec-11 23:23N 38°06' W 122°16'617.0
2017-Dec-11 23:00N 38°01' W 122°22'1427.5
2017-Dec-11 22:30N 37°48' W 122°24'0 0.0
2017-Dec-11 22:00N 37°48' W 122°24'0 0.0
2017-Dec-11 21:30N 37°48' W 122°24'0 0.0
2017-Dec-11 21:00N 37°48' W 122°24'1020.3
2017-Dec-11 20:30N 37°58' W 122°26'1222.4
2017-Dec-11 19:59N 38°06' W 122°16'0 0.1
2017-Dec-11 18:06N 38°06' W 122°16'0 2.1
2017-Dec-11 17:59N 38°06' W 122°16'714.6
2017-Dec-11 17:30N 38°01' W 122°22'1326.9
2017-Dec-11 17:00N 37°48' W 122°24'713.3
2017-Dec-11 16:30N 37°54' W 122°26'1427.9
2017-Dec-11 16:00N 38°05' W 122°15'1 2.6
2017-Dec-11 15:27N 38°06' W 122°16'919.7
2017-Dec-11 15:01N 38°00' W 122°24'1224.6
2017-Dec-11 14:30N 37°48' W 122°24'1224.0
2017-Dec-11 14:01N 37°60' W 122°24'918.4
2017-Dec-11 13:30N 38°06' W 122°16'1 0.1
2017-Dec-11 03:44N 38°05' W 122°15'625.3
2017-Dec-11 03:30N 38°02' W 122°21'1428.5
2017-Dec-11 03:01N 37°48' W 122°24'1 2.5
2017-Dec-11 02:31N 37°49' W 122°25'2 4.0
2017-Dec-11 02:01N 37°51' W 122°25'1530.1
2017-Dec-11 01:30N 38°04' W 122°16'2 3.2
2017-Dec-11 00:52N 38°06' W 122°16'514.3
2017-Dec-11 00:30N 38°02' W 122°20'1428.1
2017-Dec-11 00:01N 37°49' W 122°25'1 2.4
2017-Dec-10 23:30N 37°48' W 122°24'1223.4
2017-Dec-10 23:01N 37°59' W 122°25'1013.1
2017-Dec-10 22:15N 38°06' W 122°16'1 0.7
2017-Dec-10 20:14N 38°05' W 122°15'523.9
2017-Dec-10 20:00N 38°02' W 122°20'1427.5
2017-Dec-10 19:30N 37°49' W 122°25'1 2.5
2017-Dec-10 19:00N 37°48' W 122°24'1121.7
2017-Dec-10 18:30N 37°59' W 122°26'1113.9
2017-Dec-10 17:43N 38°06' W 122°16'0 0.7
2017-Dec-10 17:30N 38°06' W 122°16'0 0.3
2017-Dec-10 17:00N 38°06' W 122°16'0 0.0
2017-Dec-10 16:29N 38°06' W 122°16'2 0.2
2017-Dec-10 03:44N 38°04' W 122°15'628.5
2017-Dec-10 03:31N 38°01' W 122°22'1427.4
2017-Dec-10 03:00N 37°48' W 122°24'1 2.5
2017-Dec-10 02:30N 37°49' W 122°25'2 4.8
2017-Dec-10 02:01N 37°51' W 122°25'1428.6
2017-Dec-10 01:30N 38°04' W 122°16'2 4.0
2017-Dec-10 00:55N 38°06' W 122°16'718.0
2017-Dec-10 00:30N 38°01' W 122°23'1325.1
2017-Dec-10 00:00N 37°49' W 122°25'1 2.4
2017-Dec-09 23:30N 37°48' W 122°24'1223.5
2017-Dec-09 23:00N 37°60' W 122°25'1012.6
2017-Dec-09 22:15N 38°06' W 122°16'0 0.1
2017-Dec-09 20:42N 38°06' W 122°16'2 3.4
2017-Dec-09 20:15N 38°05' W 122°15'622.9
2017-Dec-09 20:00N 38°02' W 122°21'1327.0
2017-Dec-09 19:30N 37°49' W 122°25'1 2.4
2017-Dec-09 19:00N 37°48' W 122°24'1122.8
2017-Dec-09 18:30N 37°59' W 122°25'1011.0
2017-Dec-09 17:34N 38°06' W 122°16'0 0.0
2017-Dec-09 05:17N 38°06' W 122°16'2 6.5
2017-Dec-09 05:00N 38°04' W 122°15'1327.6
2017-Dec-09 04:30N 37°53' W 122°25'611.5
2017-Dec-09 04:00N 37°48' W 122°24'2 4.7
2017-Dec-09 03:31N 37°50' W 122°24'1530.5
2017-Dec-09 03:00N 38°04' W 122°16'2 4.3
2017-Dec-09 02:30N 38°06' W 122°16'2 3.6
2017-Dec-09 02:00N 38°04' W 122°15'1427.1
2017-Dec-09 01:31N 37°54' W 122°25'612.0
2017-Dec-09 01:00N 37°48' W 122°24'1224.1
2017-Dec-09 00:30N 37°60' W 122°25'918.6
2017-Dec-09 00:00N 38°06' W 122°16'0 0.0
2017-Dec-08 17:59N 38°06' W 122°16'613.5
2017-Dec-08 17:31N 38°01' W 122°21'1427.4
2017-Dec-08 17:00N 37°48' W 122°24'3 5.6
2017-Dec-08 16:30N 37°51' W 122°25'1529.5
2017-Dec-08 16:00N 38°04' W 122°16'2 4.4
2017-Dec-08 15:30N 38°06' W 122°16'918.4
2017-Dec-08 15:00N 37°60' W 122°24'1224.1
2017-Dec-08 14:30N 37°48' W 122°24'1223.9
2017-Dec-08 14:01N 37°60' W 122°25'918.7
2017-Dec-08 13:30N 38°06' W 122°16'0 0.0
2017-Dec-08 05:34N 38°06' W 122°16'0 0.9
2017-Dec-08 05:24N 38°06' W 122°16'2 4.1
2017-Dec-08 05:00N 38°05' W 122°15'1326.5
2017-Dec-08 04:31N 37°54' W 122°25'713.3
2017-Dec-08 04:00N 37°48' W 122°24'  
Track history (hours):
 
Tides and Currents Weather Stations Pressure Air Temp Water Temp Dewpoint Dewpoint Depression Visibility Wind Speed Wind Dir Waves Ship Positions

Intintoli

Owner: San Francisco Bay Area Water Emergency Transportation Authority, VALLEJO, CA. More information available from US FCC via Universal Licensing System and Coast Guard Vessel Documentation Center.

Last reported at 2017-Dec-18 03:43 UTC. Time now 2017-Dec-18 07:12 UTC.
Position N 38°04' W 122°15'.

Length 41 m.

Type: Passenger vessel. MMSI: 366989360.

Date/timePositionNaut miles runAvg speedWind from/ knotsBaromVisibWave heightAir tempDewpointWater temp
2017-Dec-18 03:43N 38°04' W 122°15'627.5
2017-Dec-18 03:31N 38°02' W 122°21'1428.5
2017-Dec-18 03:00N 37°48' W 122°24'1 2.4
2017-Dec-18 02:30N 37°49' W 122°25'0 0.7
2017-Dec-18 02:01N 37°49' W 122°25'1631.0
2017-Dec-18 01:31N 38°03' W 122°18'3 5.6
2017-Dec-18 00:58N 38°06' W 122°16'612.4
2017-Dec-18 00:30N 38°02' W 122°21'1427.7
2017-Dec-18 00:01N 37°49' W 122°25'1 2.4
2017-Dec-17 23:30N 37°48' W 122°24'1020.9
2017-Dec-17 23:00N 37°58' W 122°26'11 4.3
2017-Dec-17 20:20N 38°06' W 122°16'513.7
2017-Dec-17 20:00N 38°02' W 122°19'1529.0
2017-Dec-17 19:30N 37°49' W 122°25'1 2.4
2017-Dec-17 19:00N 37°48' W 122°24'1224.6
2017-Dec-17 18:30N 38°00' W 122°24'9 9.5
2017-Dec-17 17:35N 38°06' W 122°16'1 0.1
2017-Dec-17 03:46N 38°05' W 122°15'624.1
2017-Dec-17 03:30N 38°02' W 122°22'1427.9
2017-Dec-17 03:01N 37°48' W 122°24'1 2.4
2017-Dec-17 02:30N 37°49' W 122°25'1 1.1
2017-Dec-17 02:00N 37°49' W 122°25'1530.5
2017-Dec-17 01:30N 38°03' W 122°17'3 5.2
2017-Dec-17 00:56N 38°06' W 122°16'614.4
2017-Dec-17 00:31N 38°02' W 122°21'1326.6
2017-Dec-17 00:00N 37°49' W 122°25'1 2.4
2017-Dec-16 23:30N 37°48' W 122°24'1019.9
2017-Dec-16 23:00N 37°57' W 122°27'12 4.4
2017-Dec-16 20:19N 38°05' W 122°15'824.4
2017-Dec-16 19:58N 38°00' W 122°24'1225.5
2017-Dec-16 19:30N 37°49' W 122°25'1 2.4
2017-Dec-16 19:01N 37°48' W 122°24'1224.5
2017-Dec-16 18:31N 38°00' W 122°24'9 9.8
2017-Dec-16 17:35N 38°06' W 122°16'0 0.0
2017-Dec-16 05:20N 38°06' W 122°16'1 3.9
2017-Dec-16 05:00N 38°05' W 122°15'1327.5
2017-Dec-16 04:31N 37°54' W 122°25'713.1
2017-Dec-16 04:00N 37°48' W 122°24'4 7.1
2017-Dec-16 03:31N 37°51' W 122°25'1529.3
2017-Dec-16 03:01N 38°04' W 122°15'2 4.1
2017-Dec-16 02:30N 38°06' W 122°16'2 3.7
2017-Dec-16 02:00N 38°04' W 122°15'1326.7
2017-Dec-16 01:31N 37°54' W 122°25'612.4
2017-Dec-16 01:00N 37°48' W 122°24'1122.9
2017-Dec-16 00:30N 37°59' W 122°25'10 2.0
2017-Dec-15 19:38N 38°06' W 122°16'1 8.5
2017-Dec-15 19:30N 38°05' W 122°15'713.9
2017-Dec-15 19:01N 38°01' W 122°22'  
2017-Dec-12 10:25N 38°06' W 122°16'0 0.0
2017-Dec-12 09:25N 38°06' W 122°16'0 0.0
2017-Dec-12 08:55N 38°06' W 122°16'0 0.0
2017-Dec-12 00:54N 38°06' W 122°16'2 4.9
2017-Dec-12 00:30N 38°04' W 122°15'2 2.7
2017-Dec-11 23:48N 38°06' W 122°16'0 0.3
2017-Dec-11 23:23N 38°06' W 122°16'617.0
2017-Dec-11 23:00N 38°01' W 122°22'1427.5
2017-Dec-11 22:30N 37°48' W 122°24'0 0.0
2017-Dec-11 22:00N 37°48' W 122°24'0 0.0
2017-Dec-11 21:30N 37°48' W 122°24'0 0.0
2017-Dec-11 21:00N 37°48' W 122°24'1020.3
2017-Dec-11 20:30N 37°58' W 122°26'1222.4
2017-Dec-11 19:59N 38°06' W 122°16'0 0.1
2017-Dec-11 18:06N 38°06' W 122°16'0 2.1
2017-Dec-11 17:59N 38°06' W 122°16'714.6
2017-Dec-11 17:30N 38°01' W 122°22'1326.9
2017-Dec-11 17:00N 37°48' W 122°24'713.3
2017-Dec-11 16:30N 37°54' W 122°26'1427.9
2017-Dec-11 16:00N 38°05' W 122°15'1 2.6
2017-Dec-11 15:27N 38°06' W 122°16'919.7
2017-Dec-11 15:01N 38°00' W 122°24'1224.6
2017-Dec-11 14:30N 37°48' W 122°24'1224.0
2017-Dec-11 14:01N 37°60' W 122°24'918.4
2017-Dec-11 13:30N 38°06' W 122°16'1 0.1
2017-Dec-11 03:44N 38°05' W 122°15'625.3
2017-Dec-11 03:30N 38°02' W 122°21'1428.5
2017-Dec-11 03:01N 37°48' W 122°24'1 2.5
2017-Dec-11 02:31N 37°49' W 122°25'2 4.0
2017-Dec-11 02:01N 37°51' W 122°25'1530.1
2017-Dec-11 01:30N 38°04' W 122°16'2 3.2
2017-Dec-11 00:52N 38°06' W 122°16'514.3
2017-Dec-11 00:30N 38°02' W 122°20'1428.1
2017-Dec-11 00:01N 37°49' W 122°25'1 2.4
2017-Dec-10 23:30N 37°48' W 122°24'1223.4
2017-Dec-10 23:01N 37°59' W 122°25'1013.1
2017-Dec-10 22:15N 38°06' W 122°16'1 0.7
2017-Dec-10 20:14N 38°05' W 122°15'523.9
2017-Dec-10 20:00N 38°02' W 122°20'1427.5
2017-Dec-10 19:30N 37°49' W 122°25'1 2.5
2017-Dec-10 19:00N 37°48' W 122°24'1121.7
2017-Dec-10 18:30N 37°59' W 122°26'1113.9
2017-Dec-10 17:43N 38°06' W 122°16'0 0.7
2017-Dec-10 17:30N 38°06' W 122°16'0 0.3
2017-Dec-10 17:00N 38°06' W 122°16'0 0.0
2017-Dec-10 16:29N 38°06' W 122°16'2 0.2
2017-Dec-10 03:44N 38°04' W 122°15'628.5
2017-Dec-10 03:31N 38°01' W 122°22'1427.4
2017-Dec-10 03:00N 37°48' W 122°24'1 2.5
2017-Dec-10 02:30N 37°49' W 122°25'2 4.8
2017-Dec-10 02:01N 37°51' W 122°25'1428.6
2017-Dec-10 01:30N 38°04' W 122°16'2 4.0
2017-Dec-10 00:55N 38°06' W 122°16'718.0
2017-Dec-10 00:30N 38°01' W 122°23'1325.1
2017-Dec-10 00:00N 37°49' W 122°25'1 2.4
2017-Dec-09 23:30N 37°48' W 122°24'1223.5
2017-Dec-09 23:00N 37°60' W 122°25'1012.6
2017-Dec-09 22:15N 38°06' W 122°16'0 0.1
2017-Dec-09 20:42N 38°06' W 122°16'2 3.4
2017-Dec-09 20:15N 38°05' W 122°15'622.9
2017-Dec-09 20:00N 38°02' W 122°21'1327.0
2017-Dec-09 19:30N 37°49' W 122°25'1 2.4
2017-Dec-09 19:00N 37°48' W 122°24'1122.8
2017-Dec-09 18:30N 37°59' W 122°25'1011.0
2017-Dec-09 17:34N 38°06' W 122°16'0 0.0
2017-Dec-09 05:17N 38°06' W 122°16'2 6.5
2017-Dec-09 05:00N 38°04' W 122°15'1327.6
2017-Dec-09 04:30N 37°53' W 122°25'611.5
2017-Dec-09 04:00N 37°48' W 122°24'2 4.7
2017-Dec-09 03:31N 37°50' W 122°24'1530.5
2017-Dec-09 03:00N 38°04' W 122°16'2 4.3
2017-Dec-09 02:30N 38°06' W 122°16'2 3.6
2017-Dec-09 02:00N 38°04' W 122°15'1427.1
2017-Dec-09 01:31N 37°54' W 122°25'612.0
2017-Dec-09 01:00N 37°48' W 122°24'1224.1
2017-Dec-09 00:30N 37°60' W 122°25'918.6
2017-Dec-09 00:00N 38°06' W 122°16'0 0.0
2017-Dec-08 17:59N 38°06' W 122°16'613.5
2017-Dec-08 17:31N 38°01' W 122°21'1427.4
2017-Dec-08 17:00N 37°48' W 122°24'3 5.6
2017-Dec-08 16:30N 37°51' W 122°25'1529.5
2017-Dec-08 16:00N 38°04' W 122°16'2 4.4
2017-Dec-08 15:30N 38°06' W 122°16'918.4
2017-Dec-08 15:00N 37°60' W 122°24'1224.1
2017-Dec-08 14:30N 37°48' W 122°24'1223.9
2017-Dec-08 14:01N 37°60' W 122°25'918.7
2017-Dec-08 13:30N 38°06' W 122°16'0 0.0
2017-Dec-08 05:34N 38°06' W 122°16'0 0.9
2017-Dec-08 05:24N 38°06' W 122°16'2 4.1
2017-Dec-08 05:00N 38°05' W 122°15'1326.5
2017-Dec-08 04:31N 37°54' W 122°25'713.3
2017-Dec-08 04:00N 37°48' W 122°24'  

Dump ship's entire track history